createdAt,value
2022-09-16T00:00:06.982Z,12.30
2022-09-16T00:01:07.133Z,12.30
2022-09-16T00:02:07.019Z,12.31
2022-09-16T00:03:06.965Z,12.31
2022-09-16T00:04:06.934Z,12.33
2022-09-16T00:05:06.943Z,12.33
2022-09-16T00:06:06.914Z,12.33
2022-09-16T00:07:06.948Z,12.34
2022-09-16T00:08:07.203Z,12.34
2022-09-16T00:09:06.900Z,12.34
2022-09-16T00:10:06.900Z,12.33
2022-09-16T00:11:06.873Z,12.34
2022-09-16T00:12:06.858Z,12.37
2022-09-16T00:13:06.892Z,12.37
2022-09-16T00:14:06.838Z,12.37
2022-09-16T00:15:07.117Z,12.38
2022-09-16T00:16:06.864Z,12.38
2022-09-16T00:17:06.825Z,12.38
2022-09-16T00:18:06.796Z,12.37
2022-09-16T00:19:06.971Z,12.34
2022-09-16T00:20:06.773Z,12.34
2022-09-16T00:21:06.775Z,12.33
2022-09-16T00:22:07.075Z,12.33
2022-09-16T00:23:06.766Z,12.31
2022-09-16T00:24:06.741Z,12.33
2022-09-16T00:25:06.811Z,12.33
2022-09-16T00:26:06.714Z,12.30
2022-09-16T00:27:06.713Z,12.31
2022-09-16T00:28:06.704Z,12.30
2022-09-16T00:29:07.009Z,12.30
2022-09-16T00:30:06.673Z,12.31
2022-09-16T00:31:06.727Z,12.29
2022-09-16T00:32:06.671Z,12.30
2022-09-16T00:33:06.645Z,12.30
2022-09-16T00:34:06.646Z,12.29
2022-09-16T00:35:06.629Z,12.29
2022-09-16T00:36:06.907Z,12.29
2022-09-16T00:37:06.632Z,12.27
2022-09-16T00:38:06.583Z,12.26
2022-09-16T00:39:06.576Z,12.26
2022-09-16T00:40:06.628Z,12.23
2022-09-16T00:41:06.555Z,12.23
2022-09-16T00:42:06.548Z,12.24
2022-09-16T00:43:06.571Z,12.24
2022-09-16T00:44:06.526Z,12.24
2022-09-16T00:45:06.526Z,12.24
2022-09-16T00:46:06.507Z,12.21
2022-09-16T00:47:06.572Z,12.21
2022-09-16T00:48:06.473Z,12.21
2022-09-16T00:49:06.792Z,12.21
2022-09-16T00:50:06.463Z,12.20
2022-09-16T00:51:06.460Z,12.21
2022-09-16T00:52:06.441Z,12.20
2022-09-16T00:53:06.442Z,12.20
2022-09-16T00:54:06.416Z,12.16
2022-09-16T00:55:06.448Z,12.16
2022-09-16T00:56:06.414Z,12.15
2022-09-16T00:57:06.393Z,12.15
2022-09-16T00:58:06.376Z,12.13
2022-09-16T00:59:06.374Z,12.12
2022-09-16T01:00:06.367Z,12.13
2022-09-16T01:01:06.734Z,12.11
2022-09-16T01:02:06.387Z,12.09
2022-09-16T01:03:06.329Z,12.08
2022-09-16T01:04:06.313Z,12.08
2022-09-16T01:05:06.317Z,12.08
2022-09-16T01:06:06.287Z,12.08
2022-09-16T01:07:06.322Z,12.06
2022-09-16T01:08:06.272Z,12.05
2022-09-16T01:09:06.296Z,12.04
2022-09-16T01:10:06.242Z,12.04
2022-09-16T01:11:06.245Z,12.04
2022-09-16T01:12:06.240Z,12.04
2022-09-16T01:13:06.538Z,12.02
2022-09-16T01:14:06.202Z,12.02
2022-09-16T01:15:06.203Z,12.02
2022-09-16T01:16:06.263Z,12.01
2022-09-16T01:17:06.179Z,12.01
2022-09-16T01:18:06.159Z,11.99
2022-09-16T01:19:06.192Z,11.97
2022-09-16T01:20:06.418Z,11.97
2022-09-16T01:21:06.142Z,11.94
2022-09-16T01:22:06.124Z,11.96
2022-09-16T01:23:06.120Z,11.97
2022-09-16T01:24:06.088Z,11.96
2022-09-16T01:25:06.136Z,11.97
2022-09-16T01:26:06.079Z,11.96
2022-09-16T01:27:06.362Z,11.96
2022-09-16T01:28:06.050Z,11.96
2022-09-16T01:29:06.046Z,11.96
2022-09-16T01:30:06.047Z,11.96
2022-09-16T01:31:06.105Z,11.96
2022-09-16T01:32:06.029Z,11.96
2022-09-16T01:33:06.007Z,11.96
2022-09-16T01:34:06.267Z,11.94
2022-09-16T01:35:05.981Z,11.96
2022-09-16T01:36:05.964Z,11.97
2022-09-16T01:37:06.010Z,11.97
2022-09-16T01:38:05.957Z,11.97
2022-09-16T01:39:05.938Z,11.99
2022-09-16T01:40:05.997Z,11.99
2022-09-16T01:41:06.249Z,11.99
2022-09-16T01:42:05.899Z,12.02
2022-09-16T01:43:05.941Z,12.02
2022-09-16T01:44:05.883Z,12.05
2022-09-16T01:45:05.904Z,12.01
2022-09-16T01:46:05.883Z,11.97
2022-09-16T01:47:05.865Z,11.94
2022-09-16T01:48:06.118Z,11.90
2022-09-16T01:49:05.872Z,11.87
2022-09-16T01:50:05.822Z,11.85
2022-09-16T01:51:05.816Z,11.82
2022-09-16T01:52:05.798Z,11.78
2022-09-16T01:53:05.799Z,11.77
2022-09-16T01:54:05.772Z,11.77
2022-09-16T01:55:06.161Z,11.74
2022-09-16T01:56:05.755Z,11.74
2022-09-16T01:57:05.756Z,11.74
2022-09-16T01:58:05.743Z,11.74
2022-09-16T01:59:05.732Z,11.72
2022-09-16T02:00:05.717Z,11.72
2022-09-16T02:01:05.749Z,11.74
2022-09-16T02:02:05.790Z,11.75
2022-09-16T02:03:05.682Z,11.75
2022-09-16T02:04:05.667Z,11.77
2022-09-16T02:05:05.676Z,11.75
2022-09-16T02:06:05.645Z,11.75
2022-09-16T02:07:05.700Z,11.77
2022-09-16T02:08:05.908Z,11.75
2022-09-16T02:09:05.637Z,11.77
2022-09-16T02:10:05.599Z,11.77
2022-09-16T02:11:05.619Z,11.77
2022-09-16T02:12:05.595Z,11.78
2022-09-16T02:13:05.614Z,11.77
2022-09-16T02:14:05.563Z,11.77
2022-09-16T02:15:05.588Z,11.78
2022-09-16T02:16:05.738Z,11.78
2022-09-16T02:17:05.542Z,11.80
2022-09-16T02:18:05.545Z,11.80
2022-09-16T02:19:05.546Z,11.80
2022-09-16T02:20:05.502Z,11.80
2022-09-16T02:21:05.788Z,11.80
2022-09-16T02:22:05.476Z,11.82
2022-09-16T02:23:05.485Z,11.82
2022-09-16T02:24:05.470Z,11.82
2022-09-16T02:25:05.496Z,11.82
2022-09-16T02:26:05.438Z,11.80
2022-09-16T02:27:05.433Z,11.82
2022-09-16T02:28:05.408Z,11.80
2022-09-16T02:29:05.417Z,11.78
2022-09-16T02:30:05.397Z,11.80
2022-09-16T02:31:05.472Z,11.78
2022-09-16T02:32:05.376Z,11.80
2022-09-16T02:33:05.648Z,11.80
2022-09-16T02:34:05.354Z,11.82
2022-09-16T02:35:05.375Z,11.82
2022-09-16T02:36:05.357Z,11.83
2022-09-16T02:37:05.366Z,11.83
2022-09-16T02:38:05.320Z,11.85
2022-09-16T02:39:05.303Z,11.83
2022-09-16T02:40:05.337Z,11.85
2022-09-16T02:41:05.294Z,11.86
2022-09-16T02:42:05.274Z,11.86
2022-09-16T02:43:05.299Z,11.87
2022-09-16T02:44:05.250Z,11.87
2022-09-16T02:45:05.536Z,11.86
2022-09-16T02:46:05.278Z,11.87
2022-09-16T02:47:05.252Z,11.89
2022-09-16T02:48:05.198Z,11.87
2022-09-16T02:49:05.239Z,11.87
2022-09-16T02:50:05.178Z,11.89
2022-09-16T02:51:05.182Z,11.90
2022-09-16T02:52:05.493Z,11.89
2022-09-16T02:53:05.169Z,11.90
2022-09-16T02:54:05.152Z,11.90
2022-09-16T02:55:05.164Z,11.90
2022-09-16T02:56:05.116Z,11.90
2022-09-16T02:57:05.128Z,11.93
2022-09-16T02:58:05.093Z,11.93
2022-09-16T02:59:05.413Z,11.94
2022-09-16T03:00:05.072Z,11.93
2022-09-16T03:01:05.112Z,11.96
2022-09-16T03:02:05.100Z,11.94
2022-09-16T03:03:05.155Z,11.96
2022-09-16T03:04:05.034Z,11.94
2022-09-16T03:05:05.032Z,11.96
2022-09-16T03:06:05.298Z,11.96
2022-09-16T03:07:05.050Z,11.94
2022-09-16T03:08:05.008Z,11.94
2022-09-16T03:09:05.013Z,11.94
2022-09-16T03:10:04.996Z,11.94
2022-09-16T03:11:04.967Z,11.93
2022-09-16T03:12:04.946Z,11.94
2022-09-16T03:13:05.272Z,11.90
2022-09-16T03:14:04.926Z,11.90
2022-09-16T03:15:04.974Z,11.90
2022-09-16T03:16:04.923Z,11.89
2022-09-16T03:17:04.926Z,11.90
2022-09-16T03:18:04.888Z,11.90
2022-09-16T03:19:04.912Z,11.93
2022-09-16T03:20:05.188Z,11.93
2022-09-16T03:21:04.868Z,11.90
2022-09-16T03:22:04.845Z,11.89
2022-09-16T03:23:04.834Z,11.89
2022-09-16T03:24:04.820Z,11.90
2022-09-16T03:25:04.893Z,11.89
2022-09-16T03:26:04.801Z,11.87
2022-09-16T03:27:05.082Z,11.86
2022-09-16T03:28:04.773Z,11.86
2022-09-16T03:29:04.781Z,11.85
2022-09-16T03:30:04.777Z,11.82
2022-09-16T03:31:04.888Z,11.82
2022-09-16T03:32:04.734Z,11.78
2022-09-16T03:33:04.745Z,11.78
2022-09-16T03:34:05.004Z,11.75
2022-09-16T03:35:04.719Z,11.75
2022-09-16T03:36:04.699Z,11.75
2022-09-16T03:37:04.731Z,11.74
2022-09-16T03:38:04.682Z,11.74
2022-09-16T03:39:04.692Z,11.74
2022-09-16T03:40:04.762Z,11.74
2022-09-16T03:41:04.963Z,11.74
2022-09-16T03:42:04.628Z,11.74
2022-09-16T03:43:04.670Z,11.72
2022-09-16T03:44:04.631Z,11.71
2022-09-16T03:45:04.601Z,11.71
2022-09-16T03:46:04.698Z,11.71
2022-09-16T03:47:04.576Z,11.71
2022-09-16T03:48:04.869Z,11.70
2022-09-16T03:49:04.599Z,11.68
2022-09-16T03:50:04.579Z,11.68
2022-09-16T03:51:04.535Z,11.68
2022-09-16T03:52:04.544Z,11.65
2022-09-16T03:53:04.510Z,11.68
2022-09-16T03:54:04.523Z,11.67
2022-09-16T03:55:04.820Z,11.67
2022-09-16T03:56:04.492Z,11.68
2022-09-16T03:57:04.501Z,11.67
2022-09-16T03:58:04.468Z,11.65
2022-09-16T03:59:04.448Z,11.67
2022-09-16T04:00:04.456Z,11.67
2022-09-16T04:01:04.460Z,11.67
2022-09-16T04:02:04.720Z,11.67
2022-09-16T04:03:04.480Z,11.65
2022-09-16T04:04:04.409Z,11.65
2022-09-16T04:05:04.445Z,11.64
2022-09-16T04:06:04.405Z,11.65
2022-09-16T04:07:04.395Z,11.67
2022-09-16T04:08:04.460Z,11.65
2022-09-16T04:09:04.698Z,11.65
2022-09-16T04:10:04.368Z,11.65
2022-09-16T04:11:04.383Z,11.67
2022-09-16T04:12:04.349Z,11.65
2022-09-16T04:13:04.395Z,11.65
2022-09-16T04:14:04.354Z,11.65
2022-09-16T04:15:04.287Z,11.65
2022-09-16T04:16:04.686Z,11.65
2022-09-16T04:17:04.264Z,11.65
2022-09-16T04:18:04.255Z,11.65
2022-09-16T04:19:04.304Z,11.65
2022-09-16T04:20:04.279Z,11.65
2022-09-16T04:21:04.234Z,11.64
2022-09-16T04:22:04.214Z,11.62
2022-09-16T04:23:04.506Z,11.65
2022-09-16T04:24:04.201Z,11.65
2022-09-16T04:25:04.216Z,11.65
2022-09-16T04:26:04.175Z,11.65
2022-09-16T04:27:04.151Z,11.61
2022-09-16T04:28:04.155Z,11.61
2022-09-16T04:29:04.139Z,11.61
2022-09-16T04:30:04.443Z,11.61
2022-09-16T04:31:04.187Z,11.57
2022-09-16T04:32:04.125Z,11.57
2022-09-16T04:33:04.096Z,11.56
2022-09-16T04:34:04.088Z,11.59
2022-09-16T04:35:04.072Z,11.57
2022-09-16T04:36:04.076Z,11.57
2022-09-16T04:37:04.390Z,11.56
2022-09-16T04:38:04.049Z,11.56
2022-09-16T04:39:04.039Z,11.56
2022-09-16T04:40:05.185Z,11.54
2022-09-16T04:41:04.009Z,11.54
2022-09-16T04:42:04.011Z,11.54
2022-09-16T04:43:04.014Z,11.53
2022-09-16T04:44:04.273Z,11.52
2022-09-16T04:45:03.968Z,11.50
2022-09-16T04:46:04.011Z,11.50
2022-09-16T04:47:03.946Z,11.49
2022-09-16T04:48:03.945Z,11.47
2022-09-16T04:49:03.982Z,11.47
2022-09-16T04:50:03.919Z,11.47
2022-09-16T04:51:04.215Z,11.44
2022-09-16T04:52:03.906Z,11.43
2022-09-16T04:53:03.879Z,11.44
2022-09-16T04:54:03.890Z,11.46
2022-09-16T04:55:03.888Z,11.44
2022-09-16T04:56:03.859Z,11.46
2022-09-16T04:57:03.833Z,11.44
2022-09-16T04:58:04.132Z,11.47
2022-09-16T04:59:03.812Z,11.46
2022-09-16T05:00:03.820Z,11.46
2022-09-16T05:01:03.886Z,11.47
2022-09-16T05:02:03.822Z,11.46
2022-09-16T05:03:03.831Z,11.47
2022-09-16T05:04:03.781Z,11.44
2022-09-16T05:05:04.036Z,11.47
2022-09-16T05:06:03.776Z,11.46
2022-09-16T05:07:03.758Z,11.44
2022-09-16T05:08:03.729Z,11.44
2022-09-16T05:09:03.715Z,11.46
2022-09-16T05:10:03.720Z,11.46
2022-09-16T05:11:03.704Z,11.47
2022-09-16T05:12:03.685Z,11.47
2022-09-16T05:13:03.698Z,11.49
2022-09-16T05:14:03.672Z,11.47
2022-09-16T05:15:03.662Z,11.47
2022-09-16T05:16:03.883Z,11.50
2022-09-16T05:17:03.634Z,11.52
2022-09-16T05:18:03.900Z,11.53
2022-09-16T05:19:03.628Z,11.54
2022-09-16T05:20:03.603Z,11.54
2022-09-16T05:21:03.592Z,11.56
2022-09-16T05:22:03.599Z,11.57
2022-09-16T05:23:03.562Z,11.57
2022-09-16T05:24:03.568Z,11.59
2022-09-16T05:25:03.838Z,11.59
2022-09-16T05:26:03.558Z,11.61
2022-09-16T05:27:03.512Z,11.61
2022-09-16T05:28:03.533Z,11.61
2022-09-16T05:29:03.489Z,11.62
2022-09-16T05:30:03.518Z,11.61
2022-09-16T05:31:03.604Z,11.61
2022-09-16T05:32:03.468Z,11.61
2022-09-16T05:33:03.458Z,11.59
2022-09-16T05:34:03.451Z,11.59
2022-09-16T05:35:03.427Z,11.61
2022-09-16T05:36:03.439Z,11.62
2022-09-16T05:37:03.441Z,11.62
2022-09-16T05:38:03.679Z,11.64
2022-09-16T05:39:23.096Z,11.64
2022-09-16T05:40:03.487Z,11.65
2022-09-16T05:41:03.373Z,11.64
2022-09-16T05:42:03.365Z,11.65
2022-09-16T05:43:03.369Z,11.65
2022-09-16T05:44:03.350Z,11.65
2022-09-16T05:45:03.320Z,11.67
2022-09-16T05:46:03.351Z,11.67
2022-09-16T05:47:03.302Z,11.68
2022-09-16T05:48:03.300Z,11.67
2022-09-16T05:49:03.315Z,11.68
2022-09-16T05:50:03.560Z,11.71
2022-09-16T05:51:03.256Z,11.74
2022-09-16T05:52:03.254Z,11.74
2022-09-16T05:53:03.232Z,11.75
2022-09-16T05:54:03.242Z,11.74
2022-09-16T05:55:03.259Z,11.75
2022-09-16T05:56:03.217Z,11.77
2022-09-16T05:57:06.744Z,11.78
2022-09-16T05:58:03.187Z,11.80
2022-09-16T05:59:03.168Z,11.80
2022-09-16T06:00:03.172Z,11.83
2022-09-16T06:01:03.216Z,11.83
2022-09-16T06:02:03.242Z,11.85
2022-09-16T06:03:03.127Z,11.86
2022-09-16T06:04:03.168Z,11.86
2022-09-16T06:05:03.116Z,11.89
2022-09-16T06:06:03.111Z,11.89
2022-09-16T06:07:03.159Z,11.90
2022-09-16T06:08:03.398Z,11.94
2022-09-16T06:09:03.087Z,11.97
2022-09-16T06:10:03.064Z,11.99
2022-09-16T06:11:03.051Z,12.01
2022-09-16T06:12:03.041Z,12.04
2022-09-16T06:13:03.062Z,12.02
2022-09-16T06:14:03.043Z,12.05
2022-09-16T06:15:03.296Z,12.08
2022-09-16T06:16:03.307Z,12.09
2022-09-16T06:17:02.994Z,12.13
2022-09-16T06:18:06.255Z,12.19
2022-09-16T06:19:02.994Z,12.21
2022-09-16T06:20:02.969Z,12.26
2022-09-16T06:21:02.941Z,12.31
2022-09-16T06:22:02.947Z,12.38
2022-09-16T06:23:02.919Z,12.45
2022-09-16T06:24:02.913Z,12.54
2022-09-16T06:25:02.928Z,12.60
2022-09-16T06:26:02.906Z,12.60
2022-09-16T06:27:02.881Z,12.63
2022-09-16T06:28:03.174Z,12.63
2022-09-16T06:29:02.866Z,12.62
2022-09-16T06:30:02.908Z,12.62
2022-09-16T06:31:02.979Z,12.62
2022-09-16T06:32:02.829Z,12.60
2022-09-16T06:33:02.806Z,12.62
2022-09-16T06:34:02.802Z,12.56
2022-09-16T06:35:02.791Z,12.52
2022-09-16T06:36:02.776Z,12.51
2022-09-16T06:37:02.787Z,12.49
2022-09-16T06:38:02.770Z,12.48
2022-09-16T06:39:02.743Z,12.51
2022-09-16T06:40:02.785Z,12.49
2022-09-16T06:41:02.725Z,12.51
2022-09-16T06:42:02.718Z,12.48
2022-09-16T06:43:03.002Z,12.45
2022-09-16T06:44:02.720Z,12.44
2022-09-16T06:45:02.676Z,12.44
2022-09-16T06:46:02.740Z,12.39
2022-09-16T06:47:02.667Z,12.41
2022-09-16T06:48:02.657Z,12.39
2022-09-16T06:49:05.664Z,12.41
2022-09-16T06:50:02.644Z,12.44
2022-09-16T06:51:02.626Z,12.44
2022-09-16T06:52:02.614Z,12.44
2022-09-16T06:53:02.588Z,12.41
2022-09-16T06:54:02.597Z,12.41
2022-09-16T06:55:02.619Z,12.41
2022-09-16T06:56:02.614Z,12.39
2022-09-16T06:57:02.562Z,12.39
2022-09-16T06:58:02.863Z,12.38
2022-09-16T06:59:02.544Z,12.38
2022-09-16T07:00:02.537Z,12.37
2022-09-16T07:01:02.627Z,12.33
2022-09-16T07:02:02.591Z,12.31
2022-09-16T07:03:02.517Z,12.33
2022-09-16T07:04:02.502Z,12.37
2022-09-16T07:05:02.477Z,12.37
2022-09-16T07:06:02.469Z,12.38
2022-09-16T07:07:09.734Z,12.39
2022-09-16T07:08:02.448Z,12.41
2022-09-16T07:09:02.423Z,12.48
2022-09-16T07:10:02.439Z,12.57
2022-09-16T07:11:02.690Z,12.67
2022-09-16T07:12:02.490Z,12.69
2022-09-16T07:13:02.454Z,12.70
2022-09-16T07:14:02.401Z,12.70
2022-09-16T07:15:02.433Z,12.70
2022-09-16T07:16:13.003Z,12.71
2022-09-16T07:17:02.573Z,12.70
2022-09-16T07:18:02.620Z,12.75
2022-09-16T07:19:02.466Z,12.81
2022-09-16T07:20:02.350Z,12.84
2022-09-16T07:21:02.317Z,12.93
2022-09-16T07:22:02.327Z,12.96
2022-09-16T07:23:02.296Z,12.97
2022-09-16T07:24:02.298Z,12.96
2022-09-16T07:25:02.292Z,12.96
2022-09-16T07:26:02.280Z,12.99
2022-09-16T07:27:02.264Z,12.99
2022-09-16T07:28:02.249Z,12.96
2022-09-16T07:29:02.252Z,12.93
2022-09-16T07:30:05.612Z,13.06
2022-09-16T07:31:02.399Z,13.20
2022-09-16T07:32:02.203Z,13.32
2022-09-16T07:33:02.194Z,13.44
2022-09-16T07:34:04.246Z,13.52
2022-09-16T07:35:02.173Z,13.51
2022-09-16T07:36:02.173Z,13.56
2022-09-16T07:37:02.501Z,13.63
2022-09-16T07:38:02.148Z,13.81
2022-09-16T07:39:02.139Z,13.95
2022-09-16T07:40:02.166Z,14.09
2022-09-16T07:41:02.098Z,14.24
2022-09-16T07:42:05.873Z,14.35
2022-09-16T07:43:02.116Z,14.49
2022-09-16T07:44:02.072Z,14.53
2022-09-16T07:45:02.043Z,14.67
2022-09-16T07:46:02.137Z,14.86
2022-09-16T07:47:02.039Z,14.94
2022-09-16T07:48:02.032Z,14.93
2022-09-16T07:49:02.353Z,14.99
2022-09-16T07:50:02.035Z,15.02
2022-09-16T07:51:01.995Z,14.99
2022-09-16T07:52:01.986Z,15.06
2022-09-16T07:53:01.998Z,15.19
2022-09-16T07:54:01.970Z,15.28
2022-09-16T07:55:01.991Z,15.38
2022-09-16T07:56:02.238Z,15.49
2022-09-16T07:57:01.934Z,15.56
2022-09-16T07:58:01.940Z,15.49
2022-09-16T07:59:01.949Z,15.43
2022-09-16T08:00:01.904Z,15.52
2022-09-16T08:01:04.591Z,15.67
2022-09-16T08:02:02.026Z,15.84
2022-09-16T08:03:02.211Z,15.92
2022-09-16T08:04:01.867Z,15.89
2022-09-16T08:05:01.854Z,15.93
2022-09-16T08:06:01.844Z,15.88
2022-09-16T08:07:01.855Z,15.97
2022-09-16T08:08:01.827Z,16.07
2022-09-16T08:09:10.590Z,16.31
2022-09-16T08:10:01.799Z,16.59
2022-09-16T08:11:01.781Z,16.85
2022-09-16T08:12:01.778Z,17.17
2022-09-16T08:13:01.804Z,17.43
2022-09-16T08:14:01.743Z,17.54
2022-09-16T08:15:01.763Z,17.53
2022-09-16T08:16:02.026Z,17.55
2022-09-16T08:17:01.722Z,17.55
2022-09-16T08:18:01.701Z,17.54
2022-09-16T08:19:01.774Z,17.59
2022-09-16T08:20:01.675Z,17.78
2022-09-16T08:21:01.689Z,17.78
2022-09-16T08:22:01.654Z,17.85
2022-09-16T08:23:01.962Z,18.12
2022-09-16T08:24:01.665Z,18.44
2022-09-16T08:25:01.669Z,18.61
2022-09-16T08:26:01.630Z,18.82
2022-09-16T08:27:01.629Z,18.76
2022-09-16T08:28:01.593Z,18.54
2022-09-16T08:29:08.797Z,18.33
2022-09-16T08:30:01.569Z,18.07
2022-09-16T08:31:01.600Z,17.92
2022-09-16T08:32:01.578Z,17.78
2022-09-16T08:33:01.549Z,17.71
2022-09-16T08:34:01.526Z,17.74
2022-09-16T08:35:01.585Z,17.71
2022-09-16T08:36:01.808Z,17.63
2022-09-16T08:37:01.538Z,17.74
2022-09-16T08:38:01.509Z,17.84
2022-09-16T08:39:01.526Z,17.97
2022-09-16T08:40:01.628Z,18.03
2022-09-16T08:41:01.512Z,17.94
2022-09-16T08:42:01.454Z,17.95
2022-09-16T08:43:01.804Z,17.92
2022-09-16T08:44:01.431Z,17.94
2022-09-16T08:45:01.493Z,17.89
2022-09-16T08:46:01.477Z,17.79
2022-09-16T08:47:01.416Z,17.81
2022-09-16T08:48:01.385Z,17.85
2022-09-16T08:49:01.496Z,17.94
2022-09-16T08:50:01.661Z,18.24
2022-09-16T08:51:01.355Z,18.54
2022-09-16T08:52:01.349Z,18.61
2022-09-16T08:53:01.355Z,18.70
2022-09-16T08:54:01.324Z,18.83
2022-09-16T08:55:01.367Z,18.91
2022-09-16T08:56:01.325Z,18.97
2022-09-16T08:57:01.603Z,18.97
2022-09-16T08:58:01.332Z,18.94
2022-09-16T08:59:01.338Z,18.94
2022-09-16T09:00:01.263Z,18.84
2022-09-16T09:01:01.387Z,18.77
2022-09-16T09:02:06.563Z,18.83
2022-09-16T09:03:01.264Z,18.94
2022-09-16T09:04:01.529Z,18.83
2022-09-16T09:05:01.239Z,18.82
2022-09-16T09:06:01.222Z,18.79
2022-09-16T09:07:01.244Z,18.64
2022-09-16T09:08:01.211Z,18.50
2022-09-16T09:09:01.184Z,18.55
2022-09-16T09:10:01.139Z,18.79
2022-09-16T09:11:01.477Z,19.02
2022-09-16T09:12:01.306Z,18.95
2022-09-16T09:13:02.038Z,19.02
2022-09-16T09:14:01.122Z,19.13
2022-09-16T09:15:01.105Z,19.20
2022-09-16T09:16:01.143Z,19.35
2022-09-16T09:17:01.092Z,19.57
2022-09-16T09:18:01.397Z,19.75
2022-09-16T09:19:01.078Z,19.88
2022-09-16T09:20:01.055Z,19.83
2022-09-16T09:21:01.037Z,19.70
2022-09-16T09:22:01.043Z,19.65
2022-09-16T09:23:01.033Z,19.47
2022-09-16T09:24:01.013Z,19.23
2022-09-16T09:25:01.314Z,19.25
2022-09-16T09:26:00.985Z,19.23
2022-09-16T09:27:00.986Z,19.48
2022-09-16T09:28:00.969Z,19.73
2022-09-16T09:29:00.974Z,19.68
2022-09-16T09:30:00.956Z,19.46
2022-09-16T09:31:00.997Z,19.40
2022-09-16T09:32:01.275Z,19.58
2022-09-16T09:33:00.973Z,19.90
2022-09-16T09:34:00.911Z,20.06
2022-09-16T09:35:00.898Z,20.27
2022-09-16T09:36:00.887Z,20.28
2022-09-16T09:37:00.907Z,19.97
2022-09-16T09:38:00.855Z,20.09
2022-09-16T09:39:01.145Z,20.13
2022-09-16T09:40:00.918Z,20.43
2022-09-16T09:41:00.843Z,20.58
2022-09-16T09:42:00.809Z,20.79
2022-09-16T09:43:00.836Z,20.77
2022-09-16T09:44:00.792Z,20.98
2022-09-16T09:45:02.395Z,20.93
2022-09-16T09:46:01.078Z,20.69
2022-09-16T09:47:00.797Z,20.87
2022-09-16T09:48:00.749Z,20.59
2022-09-16T09:49:00.852Z,20.16
2022-09-16T09:50:00.751Z,20.12
2022-09-16T09:51:00.770Z,20.10
2022-09-16T09:52:00.757Z,20.12
2022-09-16T09:53:00.978Z,20.02
2022-09-16T09:54:00.685Z,20.09
2022-09-16T09:55:00.711Z,20.05
2022-09-16T09:56:00.684Z,20.05
2022-09-16T09:57:00.699Z,19.75
2022-09-16T09:58:00.639Z,19.55
2022-09-16T09:59:00.643Z,19.48
2022-09-16T10:00:00.921Z,19.23
2022-09-16T10:01:00.747Z,18.87
2022-09-16T10:02:00.700Z,18.59
2022-09-16T10:03:00.605Z,18.39
2022-09-16T10:04:00.577Z,18.34
2022-09-16T10:05:00.579Z,18.25
2022-09-16T10:06:00.564Z,18.27
2022-09-16T10:07:00.887Z,18.58
2022-09-16T10:08:00.528Z,18.95
2022-09-16T10:09:00.549Z,19.31
2022-09-16T10:10:00.554Z,19.47
2022-09-16T10:11:00.567Z,19.76
2022-09-16T10:12:00.523Z,19.97
2022-09-16T10:13:00.563Z,20.28
2022-09-16T10:14:00.465Z,20.42
2022-09-16T10:15:00.500Z,20.27
2022-09-16T10:16:00.484Z,20.38
2022-09-16T10:17:00.447Z,20.15
2022-09-16T10:18:00.465Z,19.88
2022-09-16T10:19:00.757Z,19.80
2022-09-16T10:20:00.401Z,19.58
2022-09-16T10:21:00.425Z,19.63
2022-09-16T10:22:00.374Z,19.91
2022-09-16T10:23:00.404Z,20.15
2022-09-16T10:24:00.384Z,20.30
2022-09-16T10:25:00.425Z,20.46
2022-09-16T10:26:00.347Z,20.79
2022-09-16T10:27:00.327Z,21.13
2022-09-16T10:28:00.350Z,21.41
2022-09-16T10:29:00.342Z,21.75
2022-09-16T10:30:00.289Z,21.72
2022-09-16T10:31:00.637Z,21.66
2022-09-16T10:32:00.333Z,21.63
2022-09-16T10:33:00.311Z,21.79
2022-09-16T10:34:00.277Z,21.85
2022-09-16T10:35:00.256Z,21.60
2022-09-16T10:36:00.241Z,21.74
2022-09-16T10:37:00.281Z,21.90
2022-09-16T10:38:00.515Z,22.01
2022-09-16T10:39:04.930Z,22.17
2022-09-16T10:40:00.300Z,22.44
2022-09-16T10:41:00.206Z,22.34
2022-09-16T10:42:00.212Z,22.06
2022-09-16T10:43:00.218Z,22.14
2022-09-16T10:44:00.149Z,21.78
2022-09-16T10:45:00.440Z,21.92
2022-09-16T10:46:00.354Z,22.23
2022-09-16T10:47:00.143Z,22.12
2022-09-16T10:48:03.375Z,22.34
2022-09-16T10:49:00.130Z,22.83
2022-09-16T10:50:00.081Z,22.74
2022-09-16T10:51:00.120Z,22.23
2022-09-16T10:52:00.352Z,21.61
2022-09-16T10:53:00.052Z,21.05
2022-09-16T10:54:00.046Z,20.28
2022-09-16T10:55:00.091Z,19.88
2022-09-16T10:56:00.021Z,20.24
2022-09-16T10:57:00.045Z,20.10
2022-09-16T10:58:00.004Z,20.35
2022-09-16T10:59:00.012Z,20.72
2022-09-16T10:59:59.969Z,21.06
2022-09-16T11:01:00.052Z,21.41
2022-09-16T11:02:00.396Z,21.46
2022-09-16T11:02:59.969Z,21.59
2022-09-16T11:03:59.929Z,21.78
2022-09-16T11:05:00.211Z,22.16
2022-09-16T11:05:59.918Z,22.35
2022-09-16T11:06:59.960Z,21.99
2022-09-16T11:07:59.894Z,21.82
2022-09-16T11:08:59.907Z,21.82
2022-09-16T11:09:59.873Z,21.74
2022-09-16T11:10:59.879Z,21.38
2022-09-16T11:12:00.139Z,21.24
2022-09-16T11:13:00.794Z,21.32
2022-09-16T11:13:59.841Z,21.19
2022-09-16T11:14:59.844Z,21.34
2022-09-16T11:15:59.875Z,21.46
2022-09-16T11:16:59.831Z,21.59
2022-09-16T11:17:59.784Z,21.60
2022-09-16T11:18:59.910Z,21.78
2022-09-16T11:19:59.771Z,21.75
2022-09-16T11:20:59.769Z,21.76
2022-09-16T11:21:59.792Z,21.71
2022-09-16T11:22:59.745Z,21.85
2022-09-16T11:23:59.720Z,21.76
2022-09-16T11:25:00.022Z,21.54
2022-09-16T11:25:59.717Z,21.45
2022-09-16T11:26:59.711Z,21.08
2022-09-16T11:27:59.687Z,20.68
2022-09-16T11:28:59.680Z,20.93
2022-09-16T11:29:59.671Z,21.14
2022-09-16T11:30:59.855Z,21.14
2022-09-16T11:31:59.942Z,20.61
2022-09-16T11:33:01.805Z,20.24
2022-09-16T11:34:01.388Z,20.56
2022-09-16T11:34:59.884Z,20.50
2022-09-16T11:35:59.589Z,20.84
2022-09-16T11:36:59.631Z,21.26
2022-09-16T11:37:59.621Z,21.61
2022-09-16T11:38:59.869Z,21.94
2022-09-16T11:39:59.662Z,21.98
2022-09-16T11:40:59.575Z,21.26
2022-09-16T11:41:59.599Z,21.24
2022-09-16T11:42:59.583Z,21.32
2022-09-16T11:43:59.514Z,21.42
2022-09-16T11:44:59.517Z,21.34
2022-09-16T11:45:59.490Z,21.42
2022-09-16T11:46:59.547Z,21.59
2022-09-16T11:47:59.795Z,21.74
2022-09-16T11:48:59.540Z,22.14
2022-09-16T11:49:59.503Z,22.34
2022-09-16T11:50:59.473Z,22.17
2022-09-16T11:51:59.456Z,22.10
2022-09-16T11:53:04.422Z,22.22
2022-09-16T11:54:00.310Z,22.20
2022-09-16T11:54:59.728Z,22.35
2022-09-16T11:55:59.403Z,22.14
2022-09-16T11:56:59.375Z,21.88
2022-09-16T11:57:59.362Z,21.38
2022-09-16T11:58:59.390Z,20.86
2022-09-16T11:59:59.361Z,20.56
2022-09-16T12:00:59.370Z,20.24
2022-09-16T12:01:59.647Z,20.12
2022-09-16T12:02:59.380Z,19.97
2022-09-16T12:03:59.308Z,19.88
2022-09-16T12:04:59.307Z,19.87
2022-09-16T12:05:59.285Z,19.72
2022-09-16T12:06:59.308Z,19.65
2022-09-16T12:07:59.281Z,19.58
2022-09-16T12:08:59.283Z,19.76
2022-09-16T12:09:59.249Z,20.28
2022-09-16T12:10:59.257Z,20.72
2022-09-16T12:11:59.244Z,20.66
2022-09-16T12:12:59.252Z,21.11
2022-09-16T12:14:05.492Z,21.91
2022-09-16T12:15:03.337Z,21.97
2022-09-16T12:15:59.174Z,22.07
2022-09-16T12:16:59.178Z,22.02
2022-09-16T12:17:59.204Z,21.90
2022-09-16T12:18:59.227Z,21.91
2022-09-16T12:19:59.169Z,21.97
2022-09-16T12:20:59.544Z,21.38
2022-09-16T12:21:59.159Z,21.20
2022-09-16T12:22:59.081Z,20.91
2022-09-16T12:23:59.085Z,21.21
2022-09-16T12:24:59.110Z,21.50
2022-09-16T12:25:59.073Z,21.78
2022-09-16T12:26:59.063Z,22.12
2022-09-16T12:27:59.043Z,22.13
2022-09-16T12:28:59.054Z,22.12
2022-09-16T12:29:59.037Z,21.92
2022-09-16T12:30:59.086Z,22.16
2022-09-16T12:31:59.001Z,22.20
2022-09-16T12:32:59.324Z,22.49
2022-09-16T12:33:59.022Z,22.71
2022-09-16T12:34:58.997Z,22.75
2022-09-16T12:35:59.005Z,22.52
2022-09-16T12:36:59.022Z,22.59
2022-09-16T12:37:58.949Z,22.47
2022-09-16T12:38:58.992Z,22.41
2022-09-16T12:39:58.997Z,22.64
2022-09-16T12:40:58.947Z,22.64
2022-09-16T12:41:58.886Z,22.62
2022-09-16T12:42:58.930Z,22.93
2022-09-16T12:44:02.564Z,22.99
2022-09-16T12:44:58.902Z,23.09
2022-09-16T12:45:59.002Z,23.32
2022-09-16T12:46:58.853Z,23.35
2022-09-16T12:47:58.888Z,23.38
2022-09-16T12:48:58.889Z,23.11
2022-09-16T12:49:58.853Z,23.24
2022-09-16T12:50:59.137Z,23.45
2022-09-16T12:51:58.808Z,23.53